NCAR-RAP Real-Time Weather Data

Output produced by METARs form (27 April 2015  08:55 UTC)
found at http://weather.rap.ucar.edu/surface/
 
Conditions at: KSDF observed 27 April 2015  07:56 UTC
Temperature: 8.9°C (48°F)
Dewpoint: 1.7°C (35°F) [RH = 61%]
Pressure (altimeter): 29.93 inches Hg (1013.6 mb)
[Sea-level pressure: 1013.6 mb]
Winds: from the N (360 degrees) at 10 MPH (9 knots; 4.7 m/s)
Visibility: 10 or more miles (16+ km)
Ceiling: at least 12,000 feet AGL
Clouds: sky clear below 12,000 feet AGL
Present Weather:
SOME DATA ABOVE MAY BE INACCURATE!!!
"$" is an indication the sensor requires maintenance
KSDF 270756Z 36009KT 10SM CLR 09/02 A2993 RMK AO2 SLP136 T00890017 $